Time;durP1;ratioP1;P1;durP2;ratioP2;P2;SDS_P1;SDS_P2;PMS_P1;PMS_P2;Temp;Humidity;BMP_temperature;BMP_pressure;BME280_temperature;BME280_humidity;BME280_pressure;Samples;Min_cycle;Max_cycle;Signal;HPM_P1;HPM_P2
2022/09/15 00:01:51;;;;;;;;;1.00;1.00;;;;;20.76;67.79;100432.03;5069801;27;49757;-77
2022/09/15 00:04:16;;;;;;;;;0.25;0.25;;;;;20.86;67.86;100436.22;5073483;27;49704;-76
2022/09/15 00:06:42;;;;;;;;;2.00;1.00;;;;;21.08;67.74;100480.09;5076028;27;51415;-76
2022/09/15 00:09:07;;;;;;;;;0.25;0.25;;;;;21.02;67.68;100509.59;5079581;27;49678;-75
2022/09/15 00:11:35;;;;;;;;;0.50;0.50;;;;;21.01;68.13;100494.50;5075950;27;49777;-78
2022/09/15 00:14:03;;;;;;;;;1.75;1.00;;;;;21.40;68.10;100566.47;5071857;27;50084;-74
2022/09/15 00:16:30;;;;;;;;;0.75;0.75;;;;;20.85;67.84;100491.38;5073039;27;50467;-77
2022/09/15 00:18:56;;;;;;;;;1.50;0.50;;;;;21.17;68.39;100544.81;5071295;28;49743;-74
2022/09/15 00:21:25;;;;;;;;;0.75;0.75;;;;;21.44;68.36;100594.88;5077581;27;49833;-74
2022/09/15 00:23:51;;;;;;;;;0.75;0.75;;;;;21.38;68.56;100577.19;5070980;27;49739;-75
2022/09/15 00:26:20;;;;;;;;;3.25;2.75;;;;;21.45;68.52;100590.41;5071036;27;50088;-74
2022/09/15 00:28:46;;;;;;;;;2.00;2.00;;;;;21.29;68.60;100571.22;5074429;27;50034;-76
2022/09/15 00:31:14;;;;;;;;;4.00;3.00;;;;;21.40;68.83;100588.72;5073604;27;49896;-74
2022/09/15 00:33:40;;;;;;;;;2.50;2.50;;;;;21.39;68.69;100586.97;5075240;27;49754;-76
2022/09/15 00:36:08;;;;;;;;;1.00;1.00;;;;;21.42;68.50;100597.59;5076285;27;50118;-75
2022/09/15 00:38:35;;;;;;;;;1.75;1.75;;;;;21.08;68.51;100560.16;5070668;27;50059;-74
2022/09/15 00:41:02;;;;;;;;;2.00;2.00;;;;;21.29;68.46;100600.59;5070623;27;49954;-77
2022/09/15 00:43:48;;;;;;;;;3.00;1.75;;;;;21.24;68.79;100602.47;5072216;27;49766;-76
2022/09/15 00:46:16;;;;;;;;;3.00;2.00;;;;;21.08;69.05;100585.97;5073511;27;49908;-76
2022/09/15 00:48:51;;;;;;;;;2.00;2.00;;;;;21.13;69.36;100600.97;5070789;27;49981;-77
2022/09/15 00:51:21;;;;;;;;;2.00;2.00;;;;;20.73;69.42;100544.13;5070270;27;50078;-74
2022/09/15 00:53:47;;;;;;;;;2.00;2.00;;;;;20.96;69.59;100596.97;5070133;27;50035;-74
2022/09/15 00:56:16;;;;;;;;;4.00;2.50;;;;;19.73;69.98;100406.97;5076359;27;49972;-75
2022/09/15 00:58:47;;;;;;;;;3.75;2.50;;;;;20.55;70.60;100559.66;5070668;27;49839;-75
2022/09/15 01:01:14;;;;;;;;;1.00;1.00;;;;;20.66;70.39;100587.91;5074443;27;49779;-75
2022/09/15 01:03:39;;;;;;;;;3.75;1.75;;;;;20.29;70.45;100535.38;5069522;27;50061;-76
2022/09/15 01:06:11;;;;;;;;;1.25;1.25;;;;;20.55;70.53;100590.78;5073830;27;50654;-75
2022/09/15 01:08:58;;;;;;;;;1.50;1.50;;;;;20.72;70.20;100631.28;5071599;27;49761;-75
2022/09/15 01:11:24;;;;;;;;;0.00;0.00;;;;;20.21;70.39;100542.66;5065969;27;49744;-74
2022/09/15 01:13:49;;;;;;;;;0.75;0.25;;;;;20.69;70.38;100631.38;5070288;27;49903;-76
2022/09/15 01:16:21;;;;;;;;;1.00;1.00;;;;;20.39;70.67;100590.25;5071909;27;50240;-74
2022/09/15 01:18:57;;;;;;;;;0.75;0.75;;;;;20.66;70.35;100628.78;5070524;28;50394;-74
2022/09/15 01:21:35;;;;;;;;;2.50;1.50;;;;;20.70;70.40;100632.25;5070444;27;50040;-76
2022/09/15 01:24:26;;;;;;;;;0.50;0.50;;;;;20.68;70.15;100629.63;5074716;27;50025;-76
2022/09/15 01:27:11;;;;;;;;;3.00;2.00;;;;;20.72;70.30;100623.28;5067978;27;50420;-76
2022/09/15 01:30:15;;;;;;;;;1.00;1.00;;;;;20.73;70.49;100627.72;5070070;27;49845;-74
2022/09/15 01:33:05;;;;;;;;;2.00;1.75;;;;;20.78;70.26;100631.16;5005228;28;49811;-74
2022/09/15 01:35:48;;;;;;;;;1.50;1.50;;;;;20.83;70.49;100631.03;5002508;28;49741;-73
2022/09/15 01:38:52;;;;;;;;;8.00;6.25;;;;;19.84;70.35;100466.19;5053750;27;51692;-74
2022/09/15 01:41:29;;;;;;;;;8.25;8.25;;;;;20.79;70.25;100632.03;5068271;27;49801;-74
2022/09/15 01:44:04;;;;;;;;;10.50;7.75;;;;;19.85;70.66;100510.56;5074858;27;49856;-74
2022/09/15 01:46:34;;;;;;;;;9.25;7.75;;;;;20.72;70.63;100651.75;5073909;27;49824;-77
2022/09/15 01:49:02;;;;;;;;;8.00;8.00;;;;;20.73;70.71;100657.03;5073882;27;49875;-77
2022/09/15 01:51:33;;;;;;;;;8.50;8.25;;;;;20.53;69.74;100621.94;5069358;27;49994;-78
2022/09/15 01:54:02;;;;;;;;;13.25;12.25;;;;;20.26;69.52;100618.94;5071383;27;49830;-78
2022/09/15 01:56:28;;;;;;;;;12.00;9.75;;;;;20.47;69.51;100630.09;5076013;27;49845;-77
2022/09/15 01:58:53;;;;;;;;;11.75;8.50;;;;;20.24;69.51;100595.88;5069685;27;49794;-78
2022/09/15 02:01:31;;;;;;;;;15.00;11.75;;;;;20.45;69.29;100634.56;5070908;27;49785;-76
2022/09/15 02:04:12;;;;;;;;;10.00;9.00;;;;;20.34;68.99;100610.78;5054229;27;49926;-77
2022/09/15 02:06:57;;;;;;;;;15.50;12.50;;;;;20.54;68.49;100640.56;5071746;27;49670;-78
2022/09/15 02:09:34;;;;;;;;;11.00;10.00;;;;;20.45;68.71;100624.78;5069275;27;51045;-75
2022/09/15 02:12:25;;;;;;;;;9.00;9.00;;;;;20.57;68.24;100661.00;5069462;27;49757;-79
2022/09/15 02:15:09;;;;;;;;;14.75;10.75;;;;;20.39;68.18;100640.91;5072343;27;49757;-77
2022/09/15 02:17:41;;;;;;;;;10.75;10.75;;;;;20.24;68.49;100644.75;5076418;27;49979;-78
2022/09/15 02:20:14;;;;;;;;;9.75;9.75;;;;;20.35;68.26;100660.50;5073982;27;50722;-75
2022/09/15 02:22:46;;;;;;;;;10.50;9.75;;;;;20.33;68.29;100651.69;5074762;27;49856;-74
2022/09/15 02:25:19;;;;;;;;;7.50;7.50;;;;;20.29;68.19;100647.34;5076715;27;49975;-75
2022/09/15 02:27:51;;;;;;;;;13.75;12.50;;;;;20.28;68.27;100651.78;5074320;27;49847;-78
2022/09/15 02:30:19;;;;;;;;;10.00;9.00;;;;;19.78;67.70;100572.84;5076026;27;50052;-76
2022/09/15 02:32:56;;;;;;;;;10.00;8.25;;;;;20.22;68.07;100645.69;5074833;27;49921;-78
2022/09/15 02:35:24;;;;;;;;;9.25;9.25;;;;;20.19;67.90;100635.97;5073443;27;49749;-74
2022/09/15 02:37:51;;;;;;;;;7.25;7.25;;;;;19.82;67.99;100598.53;5070024;27;49812;-76
2022/09/15 02:42:54;;;;;;;;;8.75;7.50;;;;;20.17;67.76;100656.47;5195347;22;49649;-79
2022/09/15 02:45:20;;;;;;;;;8.50;7.00;;;;;20.04;67.87;100635.41;5008168;28;49851;-77
2022/09/15 02:47:46;;;;;;;;;9.75;9.00;;;;;20.13;67.38;100660.09;5012538;28;50043;-78
2022/09/15 02:50:11;;;;;;;;;10.00;10.00;;;;;20.04;67.94;100648.72;5012548;28;52948;-80
2022/09/15 02:52:37;;;;;;;;;9.25;7.25;;;;;19.36;67.85;100567.41;5012121;28;50160;-75
2022/09/15 02:55:03;;;;;;;;;8.00;7.00;;;;;19.98;67.84;100657.75;4994568;28;49857;-78
2022/09/15 02:57:28;;;;;;;;;10.50;10.50;;;;;19.78;68.03;100627.91;5012433;28;49916;-76
2022/09/15 03:00:12;;;;;;;;;9.75;8.25;;;;;19.73;67.58;100657.31;5012698;28;49888;-78
2022/09/15 03:02:38;;;;;;;;;13.50;11.75;;;;;19.35;67.93;100589.63;5012406;28;49835;-77
2022/09/15 03:05:04;;;;;;;;;7.75;7.75;;;;;18.92;68.04;100559.34;5012685;28;49988;-76
2022/09/15 03:07:30;;;;;;;;;8.25;8.25;;;;;19.47;68.42;100630.22;5012413;28;49998;-76
2022/09/15 03:09:57;;;;;;;;;8.00;8.00;;;;;19.37;68.29;100610.88;5012160;28;50741;-77
2022/09/15 03:12:23;;;;;;;;;8.50;7.00;;;;;19.58;68.24;100639.81;5011867;28;49833;-78
2022/09/15 03:14:49;;;;;;;;;8.50;7.50;;;;;19.03;68.18;100576.88;5012624;28;49911;-76
2022/09/15 03:17:14;;;;;;;;;7.00;7.00;;;;;18.60;68.25;100484.47;5012838;28;50061;-78
2022/09/15 03:19:40;;;;;;;;;6.75;5.00;;;;;19.60;67.96;100656.66;5011210;28;50724;-77
2022/09/15 03:22:06;;;;;;;;;10.50;10.50;;;;;19.48;67.85;100654.16;5011631;28;62820;-77
2022/09/15 03:24:32;;;;;;;;;6.50;6.50;;;;;19.47;68.00;100665.72;5012042;28;49824;-77
2022/09/15 03:26:57;;;;;;;;;6.75;6.00;;;;;19.36;67.72;100652.59;5011718;28;49928;-78
2022/09/15 03:29:23;;;;;;;;;6.00;6.00;;;;;19.24;68.04;100631.53;5011468;28;49830;-75
2022/09/15 03:31:48;;;;;;;;;6.75;6.75;;;;;19.10;67.90;100614.88;5012119;28;49892;-77
2022/09/15 03:34:13;;;;;;;;;6.75;6.75;;;;;19.33;68.13;100657.09;5012145;28;49762;-77
2022/09/15 03:36:40;;;;;;;;;8.75;7.00;;;;;19.24;67.93;100642.16;5012260;28;49779;-75
2022/09/15 03:39:05;;;;;;;;;8.50;8.25;;;;;18.94;67.63;100618.72;5012147;28;50523;-75
2022/09/15 03:41:30;;;;;;;;;11.00;11.00;;;;;19.20;67.87;100676.81;5011082;28;49841;-76
2022/09/15 03:43:56;;;;;;;;;11.50;10.50;;;;;18.73;67.55;100594.22;5011272;28;58041;-76
2022/09/15 03:46:21;;;;;;;;;11.75;10.50;;;;;18.96;67.49;100643.50;5011408;28;49767;-76
2022/09/15 03:48:47;;;;;;;;;10.25;10.00;;;;;19.03;67.39;100664.69;5011708;28;49855;-76
2022/09/15 03:51:12;;;;;;;;;16.00;12.50;;;;;18.12;67.25;100554.28;5011613;28;50093;-78
2022/09/15 03:53:40;;;;;;;;;13.50;13.00;;;;;18.22;67.32;100556.81;5011881;28;49967;-77
2022/09/15 03:56:06;;;;;;;;;12.50;11.50;;;;;17.53;67.67;100477.13;5011800;28;49871;-79
2022/09/15 03:58:33;;;;;;;;;13.25;12.25;;;;;18.17;67.63;100579.91;5011550;28;49864;-78
2022/09/15 04:00:58;;;;;;;;;8.75;8.75;;;;;17.62;67.90;100484.97;4993911;28;49759;-77
2022/09/15 04:03:23;;;;;;;;;12.75;12.25;;;;;17.44;67.85;100477.22;5010927;28;49854;-75
2022/09/15 04:05:49;;;;;;;;;17.75;14.50;;;;;17.94;67.97;100555.41;5011238;28;49842;-78
2022/09/15 04:08:14;;;;;;;;;16.50;14.00;;;;;17.37;68.19;100491.47;5009866;28;52036;-76
2022/09/15 04:10:40;;;;;;;;;14.50;14.50;;;;;18.46;68.27;100685.84;5010231;28;49738;-75
2022/09/15 04:13:05;;;;;;;;;15.00;14.75;;;;;18.35;68.71;100687.75;5011671;28;49823;-76
2022/09/15 04:15:30;;;;;;;;;19.25;17.50;;;;;17.56;68.98;100580.59;5011627;28;49820;-77
2022/09/15 04:17:56;;;;;;;;;13.50;13.50;;;;;18.22;69.07;100675.50;5011374;28;51003;-76
2022/09/15 04:20:21;;;;;;;;;16.25;16.25;;;;;17.80;69.32;100618.44;5011746;28;49623;-75
2022/09/15 04:22:47;;;;;;;;;15.50;14.75;;;;;17.93;69.54;100643.94;5011146;28;49785;-75
2022/09/15 04:25:12;;;;;;;;;18.00;16.25;;;;;18.13;69.42;100684.44;5010585;28;49886;-75
2022/09/15 04:27:41;;;;;;;;;18.25;18.00;;;;;17.82;69.29;100640.53;5011409;28;50629;-77
2022/09/15 04:30:07;;;;;;;;;15.00;15.00;;;;;18.10;69.38;100697.78;5011575;28;49850;-79
2022/09/15 04:32:34;;;;;;;;;15.75;15.75;;;;;18.13;69.08;100699.50;5011559;28;50017;-77
2022/09/15 04:35:00;;;;;;;;;13.00;11.75;;;;;18.01;69.64;100689.91;5011129;28;49895;-77
2022/09/15 04:37:25;;;;;;;;;20.75;17.00;;;;;17.50;69.50;100614.28;5010431;28;50566;-76
2022/09/15 04:39:51;;;;;;;;;15.25;14.25;;;;;17.34;69.30;100589.66;5010400;28;49828;-76
2022/09/15 04:42:16;;;;;;;;;15.25;14.50;;;;;18.17;69.64;100706.56;4992910;28;50156;-78
2022/09/15 04:44:42;;;;;;;;;15.00;14.50;;;;;18.18;69.22;100708.31;5011494;28;49858;-79
2022/09/15 04:47:07;;;;;;;;;10.75;10.25;;;;;18.08;69.18;100680.09;5010794;28;57315;-78
2022/09/15 04:49:33;;;;;;;;;15.25;14.25;;;;;18.19;68.97;100704.75;5010489;28;49782;-77
2022/09/15 04:51:58;;;;;;;;;8.25;8.25;;;;;17.82;69.05;100645.84;5011196;28;49921;-78
2022/09/15 04:54:24;;;;;;;;;14.00;13.75;;;;;18.08;69.05;100691.59;5010888;28;49920;-78
2022/09/15 04:56:49;;;;;;;;;15.50;14.00;;;;;17.89;69.38;100676.75;5010561;28;49929;-77
2022/09/15 04:59:16;;;;;;;;;12.25;12.00;;;;;18.09;69.73;100722.59;5010922;28;49762;-75
2022/09/15 05:01:42;;;;;;;;;19.00;16.50;;;;;17.93;69.87;100707.69;5010983;28;49990;-77
2022/09/15 05:04:09;;;;;;;;;23.00;21.75;;;;;17.92;70.42;100709.47;5011308;28;49557;-76
2022/09/15 05:06:35;;;;;;;;;12.25;12.25;;;;;17.55;70.01;100663.75;5011298;28;50570;-78
2022/09/15 05:09:02;;;;;;;;;17.75;14.25;;;;;17.43;69.83;100672.72;5011253;28;50009;-77
2022/09/15 05:11:29;;;;;;;;;14.00;13.50;;;;;17.91;70.08;100744.00;5010963;28;49770;-78
2022/09/15 05:13:55;;;;;;;;;15.25;15.25;;;;;17.69;69.97;100703.47;5010894;28;49936;-79
2022/09/15 05:16:22;;;;;;;;;13.75;13.50;;;;;17.89;70.04;100744.03;5010542;28;49699;-74
2022/09/15 05:18:49;;;;;;;;;16.25;14.75;;;;;17.87;70.03;100747.59;5010886;28;49733;-72
2022/09/15 05:21:18;;;;;;;;;21.50;18.25;;;;;17.76;70.37;100750.34;5010670;28;49881;-74
2022/09/15 05:23:45;;;;;;;;;15.50;14.75;;;;;17.43;70.33;100693.97;5011077;28;49784;-72
2022/09/15 05:26:12;;;;;;;;;16.25;16.25;;;;;17.78;70.46;100758.31;5010436;28;49839;-72
2022/09/15 05:28:38;;;;;;;;;14.75;14.75;;;;;17.59;70.46;100723.91;5010773;28;49819;-73
2022/09/15 05:31:11;;;;;;;;;17.00;15.00;;;;;17.73;70.64;100763.63;5010738;28;49861;-74
2022/09/15 05:33:37;;;;;;;;;16.50;15.25;;;;;17.55;70.85;100738.09;5010873;28;49774;-74
2022/09/15 05:36:03;;;;;;;;;18.00;18.00;;;;;17.65;70.69;100758.34;5010361;28;50754;-69
2022/09/15 05:38:30;;;;;;;;;19.00;18.00;;;;;17.68;70.87;100768.09;5010520;28;49769;-70
2022/09/15 05:41:07;;;;;;;;;19.25;18.00;;;;;17.38;71.04;100718.78;5010336;28;49816;-70
2022/09/15 05:43:34;;;;;;;;;19.00;18.75;;;;;17.65;71.09;100768.09;5010828;28;49802;-68
2022/09/15 05:46:00;;;;;;;;;21.00;21.00;;;;;17.61;70.98;100769.91;5010361;28;49912;-73
2022/09/15 05:48:26;;;;;;;;;19.00;18.50;;;;;17.46;71.01;100746.13;5011374;28;49812;-73
2022/09/15 05:50:53;;;;;;;;;26.75;23.50;;;;;17.61;71.20;100774.31;5012102;28;49694;-72
2022/09/15 05:53:19;;;;;;;;;20.50;18.00;;;;;17.61;71.32;100776.97;4998807;28;50895;-72
2022/09/15 05:55:44;;;;;;;;;26.75;24.00;;;;;17.62;71.35;100776.97;5003763;28;50104;-71
2022/09/15 05:58:10;;;;;;;;;29.75;26.00;;;;;17.49;71.13;100769.13;5003821;28;49773;-71
2022/09/15 06:00:36;;;;;;;;;21.00;18.50;;;;;17.50;71.06;100765.56;5007612;28;50746;-72
2022/09/15 06:03:02;;;;;;;;;23.25;22.50;;;;;17.58;71.21;100777.91;4996196;28;50099;-72
2022/09/15 06:05:27;;;;;;;;;21.75;19.75;;;;;17.42;70.91;100747.94;5013378;28;50726;-73
2022/09/15 06:07:54;;;;;;;;;21.00;19.75;;;;;17.61;71.15;100783.19;5013558;28;49658;-75
2022/09/15 06:10:23;;;;;;;;;24.75;24.00;;;;;17.51;70.93;100785.91;5013727;28;50054;-73
2022/09/15 06:12:52;;;;;;;;;25.50;20.50;;;;;17.54;71.05;100784.09;5017796;28;49716;-80
2022/09/15 06:15:20;;;;;;;;;24.00;20.75;;;;;17.45;70.84;100781.50;5014222;28;50459;-73
2022/09/15 06:17:46;;;;;;;;;23.25;22.75;;;;;17.50;71.08;100794.78;5013002;28;49813;-74
2022/09/15 06:20:11;;;;;;;;;21.00;19.00;;;;;17.59;71.15;100807.97;5013604;28;49757;-75
2022/09/15 06:22:37;;;;;;;;;23.00;20.00;;;;;17.40;71.22;100786.88;5015727;28;49793;-69
2022/09/15 06:25:03;;;;;;;;;31.75;25.75;;;;;17.60;71.12;100815.03;5020468;28;50198;-75
2022/09/15 06:27:28;;;;;;;;;26.50;25.00;;;;;17.52;70.70;100809.78;5018565;28;49831;-72
2022/09/15 06:29:54;;;;;;;;;26.00;21.00;;;;;17.61;70.76;100820.34;5012185;28;50158;-71
2022/09/15 06:32:19;;;;;;;;;28.50;26.50;;;;;17.61;70.71;100822.13;5012319;28;49731;-70
2022/09/15 06:34:45;;;;;;;;;24.00;21.00;;;;;17.30;71.15;100781.63;5013046;28;51513;-71
2022/09/15 06:37:10;;;;;;;;;26.50;24.50;;;;;17.58;70.67;100827.44;5013090;28;49762;-71
2022/09/15 06:39:36;;;;;;;;;28.50;23.75;;;;;17.59;70.87;100826.56;5012837;28;49892;-71
2022/09/15 06:42:01;;;;;;;;;23.75;21.50;;;;;17.65;70.98;100822.06;5013295;28;49846;-71
2022/09/15 06:44:26;;;;;;;;;26.00;22.75;;;;;17.49;70.53;100793.88;5012775;28;50574;-70
2022/09/15 06:46:52;;;;;;;;;23.50;16.50;;;;;17.73;70.44;100828.25;5012289;28;57691;-71
2022/09/15 06:49:18;;;;;;;;;20.00;19.50;;;;;17.78;70.17;100835.31;5012272;28;60230;-71
2022/09/15 06:51:43;;;;;;;;;24.75;21.75;;;;;17.72;70.14;100821.16;5013003;28;49646;-71
2022/09/15 06:54:08;;;;;;;;;23.75;21.50;;;;;17.88;70.04;100837.88;5012583;28;50233;-70
2022/09/15 06:56:34;;;;;;;;;24.50;22.25;;;;;17.94;70.13;100840.47;5012619;28;49747;-71
2022/09/15 06:58:59;;;;;;;;;24.50;22.00;;;;;17.61;69.95;100796.44;5012294;28;49680;-70
2022/09/15 07:01:28;;;;;;;;;26.50;24.50;;;;;17.99;69.17;100845.75;5011491;28;49651;-72
2022/09/15 07:03:55;;;;;;;;;24.75;23.75;;;;;17.92;69.39;100833.41;5012445;28;49618;-73
2022/09/15 07:06:21;;;;;;;;;23.50;23.50;;;;;18.06;69.08;100850.13;5012446;28;49906;-73
2022/09/15 07:08:47;;;;;;;;;24.50;20.75;;;;;17.87;68.91;100806.03;4994803;28;49904;-72
2022/09/15 07:11:13;;;;;;;;;22.25;22.25;;;;;18.11;68.57;100845.66;5012395;28;50099;-72
2022/09/15 07:13:39;;;;;;;;;22.25;21.00;;;;;18.01;68.31;100839.53;5012508;28;49730;-72
2022/09/15 07:16:06;;;;;;;;;27.25;23.00;;;;;18.17;68.42;100844.72;5012587;28;49722;-70
2022/09/15 07:18:32;;;;;;;;;25.75;22.75;;;;;18.22;68.02;100853.50;5012695;28;50083;-70
2022/09/15 07:21:02;;;;;;;;;22.25;21.00;;;;;18.05;67.67;100824.47;5012342;28;49893;-72
2022/09/15 07:23:28;;;;;;;;;20.25;18.50;;;;;18.30;67.67;100852.56;5012069;28;50521;-70
2022/09/15 07:26:19;;;;;;;;;27.75;26.50;;;;;18.35;67.68;100849.88;5012067;28;49834;-71
2022/09/15 07:28:48;;;;;;;;;24.00;22.50;;;;;18.28;67.29;100835.75;5012490;28;49901;-70
2022/09/15 07:31:17;;;;;;;;;24.75;20.75;;;;;18.42;67.18;100861.28;5012068;28;50084;-71
2022/09/15 07:33:43;;;;;;;;;24.75;24.75;;;;;18.42;66.96;100872.81;5011988;28;50644;-72
2022/09/15 07:36:09;;;;;;;;;20.25;19.00;;;;;18.45;66.99;100869.25;5012363;28;50181;-70
2022/09/15 07:38:39;;;;;;;;;22.25;20.75;;;;;18.36;66.79;100843.66;4994312;28;49775;-71
2022/09/15 07:41:09;;;;;;;;;29.75;23.50;;;;;18.42;66.81;100845.34;5012370;28;50054;-72
2022/09/15 07:43:34;;;;;;;;;23.00;18.50;;;;;18.65;66.25;100879.72;5011586;28;52642;-72
2022/09/15 07:46:00;;;;;;;;;26.25;21.75;;;;;18.72;66.21;100871.69;5011663;28;49686;-71
2022/09/15 07:48:26;;;;;;;;;27.00;24.75;;;;;18.54;65.71;100850.56;5011972;28;49702;-71
2022/09/15 07:50:52;;;;;;;;;21.00;19.00;;;;;18.62;65.20;100848.69;5012132;28;49826;-71
2022/09/15 07:53:17;;;;;;;;;25.00;23.50;;;;;18.64;65.24;100846.03;5011818;28;50376;-69
2022/09/15 07:55:42;;;;;;;;;28.00;24.25;;;;;18.90;65.24;100880.31;5011801;28;49958;-70
2022/09/15 07:58:08;;;;;;;;;17.50;17.50;;;;;18.92;64.88;100874.13;5011855;28;49770;-69
2022/09/15 08:00:33;;;;;;;;;18.50;18.50;;;;;18.89;64.66;100855.50;5011834;28;49801;-74
2022/09/15 08:02:59;;;;;;;;;22.75;21.25;;;;;18.88;64.24;100843.97;5011776;28;49669;-79
2022/09/15 08:05:27;;;;;;;;;16.75;16.75;;;;;19.09;64.48;100856.13;5012029;28;49948;-81
2022/09/15 08:07:54;;;;;;;;;25.25;20.75;;;;;19.33;64.24;100870.94;5012021;28;49790;-83
2022/09/15 08:10:19;;;;;;;;;25.50;23.25;;;;;19.15;63.70;100813.50;5012511;28;49877;-79
2022/09/15 08:12:45;;;;;;;;;20.75;16.75;;;;;19.66;62.90;100874.03;5012919;28;50474;-72
2022/09/15 08:15:10;;;;;;;;;23.50;18.75;;;;;19.89;61.73;100885.25;5012764;28;49508;-79
2022/09/15 08:17:35;;;;;;;;;12.25;12.25;;;;;19.68;60.72;100824.28;5008372;28;49999;-74
2022/09/15 08:20:01;;;;;;;;;21.75;20.00;;;;;20.11;60.29;100860.91;5008511;28;50202;-70
2022/09/15 08:22:27;;;;;;;;;21.75;18.50;;;;;20.21;59.57;100850.06;5011351;28;51792;-71
2022/09/15 08:24:52;;;;;;;;;22.50;17.50;;;;;20.70;58.71;100909.66;5011352;28;50486;-80
2022/09/15 08:27:17;;;;;;;;;19.50;19.25;;;;;20.05;58.08;100787.25;5012017;28;49861;-80
2022/09/15 08:29:43;;;;;;;;;22.00;21.25;;;;;20.41;57.30;100830.16;5011862;28;49887;-81
2022/09/15 08:32:08;;;;;;;;;17.00;14.75;;;;;20.72;57.15;100868.72;5011569;28;50637;-85
2022/09/15 08:34:33;;;;;;;;;17.50;17.25;;;;;20.74;57.16;100858.88;5012145;28;49774;-80
2022/09/15 08:36:59;;;;;;;;;13.00;12.00;;;;;21.02;55.62;100891.22;4994259;28;49812;-86
2022/09/15 08:39:24;;;;;;;;;9.25;9.25;;;;;21.16;55.59;100904.31;5011741;28;50121;-73
2022/09/15 08:41:52;;;;;;;;;7.50;6.75;;;;;21.35;55.41;100920.88;4993159;28;52496;-74
2022/09/15 08:44:42;;;;;;;;;9.25;8.75;;;;;21.43;54.29;100933.16;5012010;28;49536;-80
2022/09/15 08:47:27;;;;;;;;;9.75;9.00;;;;;21.52;54.72;100932.09;5010237;28;49854;-70
2022/09/15 08:50:19;;;;;;;;;10.00;10.00;;;;;21.60;53.86;100937.25;5011853;28;49710;-79
2022/09/15 08:52:58;;;;;;;;;12.25;11.50;;;;;21.68;54.14;100935.28;4988272;28;52224;-85
2022/09/15 08:55:47;;;;;;;;;5.25;5.25;;;;;21.61;53.70;100909.59;5011159;28;49845;-78
2022/09/15 08:58:18;;;;;;;;;7.00;5.75;;;;;21.63;52.15;100878.41;5010755;28;49827;-82
2022/09/15 09:00:50;;;;;;;;;7.75;6.00;;;;;21.97;51.52;100924.81;5011725;28;49923;-72
2022/09/15 09:03:24;;;;;;;;;6.50;4.75;;;;;22.14;51.44;100940.47;5004957;28;50759;-84
2022/09/15 09:05:59;;;;;;;;;6.75;5.00;;;;;22.28;50.94;100927.66;5010047;28;49817;-82
2022/09/15 09:08:46;;;;;;;;;6.00;4.00;;;;;22.48;50.85;100928.94;5011529;28;49860;-70
2022/09/15 09:11:33;;;;;;;;;5.75;5.75;;;;;22.52;49.90;100927.97;5011186;28;49835;-71
2022/09/15 09:14:24;;;;;;;;;6.75;6.50;;;;;22.41;49.67;100922.00;5010785;28;50828;-87
2022/09/15 09:17:13;;;;;;;;;4.75;4.50;;;;;22.55;49.71;100926.06;5008481;28;49589;-81
2022/09/15 09:19:51;;;;;;;;;5.75;5.75;;;;;22.71;49.85;100928.34;4971070;28;50368;-87
2022/09/15 09:22:22;;;;;;;;;8.50;8.25;;;;;22.20;49.96;100843.22;5013466;28;50080;-78
2022/09/15 09:24:51;;;;;;;;;8.00;8.00;;;;;22.83;50.33;100931.56;4993188;28;50496;-72
2022/09/15 09:27:22;;;;;;;;;7.75;6.75;;;;;22.69;50.20;100898.09;5010963;28;49829;-73
2022/09/15 09:29:53;;;;;;;;;7.25;5.75;;;;;22.71;50.03;100917.66;5010871;28;49961;-74
2022/09/15 09:32:25;;;;;;;;;8.00;8.00;;;;;22.61;50.61;100911.66;5011326;28;49561;-71
2022/09/15 09:35:01;;;;;;;;;7.00;5.25;;;;;22.66;51.11;100912.41;5010952;28;49801;-71
2022/09/15 09:37:27;;;;;;;;;5.25;5.25;;;;;22.50;50.47;100884.31;5011521;28;49913;-81
2022/09/15 09:39:53;;;;;;;;;7.50;6.00;;;;;22.50;50.21;100895.03;5011582;28;49825;-73
2022/09/15 09:42:19;;;;;;;;;5.25;3.50;;;;;22.64;50.46;100919.59;5011224;28;53399;-70
2022/09/15 09:44:45;;;;;;;;;4.75;2.75;;;;;22.75;50.52;100952.31;5011328;28;50077;-81
2022/09/15 09:47:12;;;;;;;;;3.00;3.00;;;;;22.50;50.17;100901.25;5010678;28;49831;-71
2022/09/15 09:49:46;;;;;;;;;4.75;4.75;;;;;22.43;49.94;100882.72;5010884;28;49883;-73
2022/09/15 09:52:12;;;;;;;;;4.00;3.50;;;;;22.59;49.54;100916.19;5011332;28;49765;-87
2022/09/15 09:54:38;;;;;;;;;3.50;3.50;;;;;22.54;49.07;100936.81;5010631;28;50911;-82
2022/09/15 09:57:12;;;;;;;;;5.00;2.25;;;;;22.48;49.79;100932.50;5010239;28;49984;-71
2022/09/15 09:59:39;;;;;;;;;5.50;4.00;;;;;22.36;49.58;100931.94;5010693;28;49538;-83
2022/09/15 10:02:05;;;;;;;;;6.75;6.25;;;;;22.28;49.74;100933.00;5010479;28;49652;-71
2022/09/15 10:04:30;;;;;;;;;4.75;4.00;;;;;22.27;49.46;100949.97;5009850;28;50460;-75
2022/09/15 10:06:56;;;;;;;;;3.50;3.00;;;;;22.02;50.36;100919.38;5010185;28;49750;-75
2022/09/15 10:09:21;;;;;;;;;4.00;4.00;;;;;22.23;50.47;100945.63;5009963;28;49915;-74
2022/09/15 10:11:54;;;;;;;;;5.50;4.25;;;;;22.28;50.24;100943.69;5010252;28;50050;-74
2022/09/15 10:14:29;;;;;;;;;5.00;4.75;;;;;22.14;50.39;100924.44;4992313;28;50808;-69
2022/09/15 10:17:17;;;;;;;;;6.00;4.75;;;;;22.23;50.52;100934.03;5010079;28;49991;-74
2022/09/15 10:19:44;;;;;;;;;4.00;4.00;;;;;22.33;50.65;100929.34;5009199;28;49801;-72
2022/09/15 10:22:20;;;;;;;;;2.25;2.25;;;;;22.35;50.45;100931.06;5003710;28;50034;-70
2022/09/15 10:24:45;;;;;;;;;5.75;4.00;;;;;22.26;50.29;100908.09;5003945;28;53807;-70
2022/09/15 10:27:26;;;;;;;;;5.25;4.00;;;;;22.34;49.36;100912.38;5009449;28;49758;-75
2022/09/15 10:29:53;;;;;;;;;2.00;2.00;;;;;22.51;49.61;100928.88;5009666;28;49826;-76
2022/09/15 10:32:30;;;;;;;;;2.00;1.00;;;;;22.61;49.89;100932.19;5009864;28;49629;-74
2022/09/15 10:35:18;;;;;;;;;2.00;2.00;;;;;22.69;49.33;100922.19;5011336;28;51659;-70
2022/09/15 10:38:28;;;;;;;;;4.75;3.25;;;;;22.93;48.13;100920.66;5013484;28;49701;-74
2022/09/15 10:41:09;;;;;;;;;3.50;3.00;;;;;23.15;48.25;100924.47;4951542;28;49977;-73
2022/09/15 10:44:02;;;;;;;;;3.00;3.00;;;;;23.41;48.64;100932.63;4951920;28;49782;-74
2022/09/15 10:46:58;;;;;;;;;2.00;2.00;;;;;23.66;47.57;100924.78;4999992;28;51473;-75
2022/09/15 10:49:36;;;;;;;;;3.75;2.00;;;;;23.79;47.23;100913.69;5015746;28;49983;-74
2022/09/15 10:52:15;;;;;;;;;3.50;3.50;;;;;23.83;47.01;100897.44;5013275;28;49881;-71
2022/09/15 10:55:19;;;;;;;;;3.00;3.00;;;;;24.24;46.38;100928.28;4995444;28;50324;-74
2022/09/15 10:58:00;;;;;;;;;5.00;4.00;;;;;24.54;45.20;100928.22;4995288;28;51458;-70
2022/09/15 11:00:35;;;;;;;;;2.50;2.00;;;;;24.68;44.43;100920.56;5012932;28;49797;-73
2022/09/15 11:03:01;;;;;;;;;2.25;2.25;;;;;24.81;44.01;100924.59;5013059;28;49852;-74
2022/09/15 11:05:51;;;;;;;;;2.50;2.50;;;;;24.86;43.78;100918.16;5012994;28;49816;-70
2022/09/15 11:08:30;;;;;;;;;3.50;3.50;;;;;24.82;43.71;100912.03;5012747;28;51036;-73
2022/09/15 11:11:07;;;;;;;;;3.00;3.00;;;;;24.74;43.97;100890.81;5012660;28;49994;-74
2022/09/15 11:13:58;;;;;;;;;4.25;3.25;;;;;24.86;44.12;100912.78;5012960;28;49655;-73
2022/09/15 11:16:39;;;;;;;;;3.50;3.00;;;;;24.79;44.16;100917.50;5011479;28;50166;-72
2022/09/15 11:19:28;;;;;;;;;3.00;3.00;;;;;24.60;44.32;100906.53;5012478;28;49681;-70
2022/09/15 11:22:04;;;;;;;;;3.00;3.00;;;;;24.33;44.45;100888.72;5012343;28;49884;-71
2022/09/15 11:24:46;;;;;;;;;4.00;4.00;;;;;24.12;44.70;100883.06;5012077;28;49948;-73
2022/09/15 11:27:24;;;;;;;;;6.75;6.50;;;;;23.64;44.94;100831.94;5007478;28;49791;-72
2022/09/15 11:30:02;;;;;;;;;3.75;3.75;;;;;24.17;45.44;100901.72;5012452;28;50926;-81
2022/09/15 11:32:43;;;;;;;;;3.50;2.75;;;;;23.63;45.32;100827.50;4994650;28;49899;-76
2022/09/15 11:35:50;;;;;;;;;4.50;3.50;;;;;24.31;45.75;100904.84;5012675;28;50053;-79